createdAt,value
2018-03-15T00:00:57.331Z,78.10
2018-03-15T00:03:31.108Z,78.50
2018-03-15T00:05:59.168Z,78.10
2018-03-15T00:08:28.218Z,78.10
2018-03-15T00:10:56.263Z,78.10
2018-03-15T00:13:24.324Z,78.20
2018-03-15T00:15:53.180Z,78.90
2018-03-15T00:18:21.247Z,78.90
2018-03-15T00:20:49.315Z,79.20
2018-03-15T00:23:17.394Z,79.20
2018-03-15T00:25:46.204Z,80.30
2018-03-15T00:28:14.281Z,80.20
2018-03-15T00:30:42.342Z,80.20
2018-03-15T00:33:11.269Z,80.20
2018-03-15T00:35:39.340Z,80.20
2018-03-15T00:38:08.184Z,80.40
2018-03-15T00:40:36.295Z,80.30
2018-03-15T00:43:04.343Z,80.50
2018-03-15T00:45:33.170Z,80.70
2018-03-15T00:48:01.247Z,80.70
2018-03-15T00:50:29.338Z,80.80
2018-03-15T00:52:57.754Z,81.20
2018-03-15T00:55:25.862Z,81.00
2018-03-15T00:57:53.940Z,81.20
2018-03-15T01:00:21.985Z,81.50
2018-03-15T01:02:50.162Z,81.70
2018-03-15T01:05:18.187Z,81.30
2018-03-15T01:07:47.013Z,82.00
2018-03-15T01:10:15.065Z,82.00
2018-03-15T01:12:43.897Z,82.20
2018-03-15T01:15:11.971Z,82.10
2018-03-15T01:17:40.040Z,82.00
2018-03-15T01:20:08.888Z,81.70
2018-03-15T01:22:37.065Z,81.70
2018-03-15T01:25:05.155Z,81.70
2018-03-15T01:27:33.248Z,81.90
2018-03-15T01:30:01.299Z,81.60
2018-03-15T01:32:29.378Z,81.70
2018-03-15T01:34:57.478Z,81.60
2018-03-15T01:37:25.588Z,81.60
2018-03-15T01:39:53.730Z,81.70
2018-03-15T01:42:21.769Z,81.40
2018-03-15T01:44:49.832Z,81.20
2018-03-15T01:47:17.898Z,81.10
2018-03-15T01:49:46.218Z,81.20
2018-03-15T01:52:14.266Z,81.00
2018-03-15T01:54:42.419Z,81.00
2018-03-15T01:57:10.571Z,80.90
2018-03-15T01:59:38.638Z,81.00
2018-03-15T02:02:06.744Z,80.90
2018-03-15T02:04:34.815Z,80.80
2018-03-15T02:07:02.876Z,80.60
2018-03-15T02:09:30.947Z,80.50
2018-03-15T02:11:58.990Z,80.40
2018-03-15T02:14:27.179Z,80.50
2018-03-15T02:16:55.943Z,81.00
2018-03-15T02:19:24.013Z,80.90
2018-03-15T02:21:52.158Z,81.20
2018-03-15T02:24:20.999Z,82.70
2018-03-15T02:26:50.413Z,82.00
2018-03-15T02:29:18.476Z,82.00
2018-03-15T02:31:46.542Z,81.90
2018-03-15T02:34:15.358Z,82.00
2018-03-15T02:36:43.457Z,81.90
2018-03-15T02:39:11.529Z,81.90
2018-03-15T02:41:39.641Z,82.00
2018-03-15T02:44:07.941Z,81.80
2018-03-15T02:46:36.033Z,82.60
2018-03-15T02:49:04.169Z,82.60
2018-03-15T02:51:32.250Z,82.20
2018-03-15T02:54:01.071Z,82.30
2018-03-15T02:56:29.144Z,82.20
2018-03-15T02:58:57.205Z,82.40
2018-03-15T03:01:25.271Z,82.70
2018-03-15T03:03:53.345Z,82.70
2018-03-15T03:06:21.450Z,82.90
2018-03-15T03:08:49.591Z,83.10
2018-03-15T03:11:17.648Z,83.20
2018-03-15T03:13:45.703Z,83.00
2018-03-15T03:16:13.776Z,82.90
2018-03-15T03:18:41.900Z,82.60
2018-03-15T03:21:09.955Z,82.80
2018-03-15T03:23:38.773Z,83.30
2018-03-15T03:26:06.941Z,83.20
2018-03-15T03:28:35.781Z,83.10
2018-03-15T03:31:03.841Z,83.20
2018-03-15T03:33:31.888Z,83.10
2018-03-15T03:36:00.528Z,83.40
2018-03-15T03:38:28.626Z,83.70
2018-03-15T03:40:57.430Z,84.10
2018-03-15T03:43:25.490Z,84.00
2018-03-15T03:45:53.582Z,84.00
2018-03-15T03:48:21.644Z,83.60
2018-03-15T03:50:50.547Z,83.10
2018-03-15T03:53:19.372Z,83.30
2018-03-15T03:55:47.422Z,83.30
2018-03-15T03:58:15.534Z,83.90
2018-03-15T04:00:44.368Z,84.30
2018-03-15T04:03:12.420Z,84.30
2018-03-15T04:05:40.502Z,84.70
2018-03-15T04:08:08.578Z,85.00
2018-03-15T04:10:37.408Z,84.70
2018-03-15T04:13:05.464Z,84.70
2018-03-15T04:15:33.670Z,84.90
2018-03-15T04:18:01.733Z,85.00
2018-03-15T04:20:29.778Z,85.30
2018-03-15T04:22:57.876Z,85.40
2018-03-15T04:25:25.936Z,85.20
2018-03-15T04:27:54.000Z,84.50
2018-03-15T04:30:22.064Z,84.70
2018-03-15T04:32:50.955Z,83.90
2018-03-15T04:35:19.105Z,83.80
2018-03-15T04:37:47.156Z,83.40
2018-03-15T04:40:15.308Z,83.00
2018-03-15T04:42:43.415Z,83.70
2018-03-15T04:45:11.488Z,82.50
2018-03-15T04:47:39.628Z,82.30
2018-03-15T04:50:07.631Z,81.70
2018-03-15T04:52:36.472Z,82.80
2018-03-15T04:55:04.540Z,82.80
2018-03-15T04:57:32.605Z,83.20
2018-03-15T05:00:00.656Z,82.40
2018-03-15T05:02:28.712Z,82.10
2018-03-15T05:04:56.810Z,82.50
2018-03-15T05:07:24.867Z,82.60
2018-03-15T05:09:53.063Z,82.50
2018-03-15T05:12:21.133Z,82.30
2018-03-15T05:14:49.212Z,81.50
2018-03-15T05:17:17.282Z,81.90
2018-03-15T05:19:45.343Z,81.60
2018-03-15T05:22:13.589Z,81.60
2018-03-15T05:24:41.660Z,81.60
2018-03-15T05:27:09.729Z,81.10
2018-03-15T05:29:37.793Z,81.20
2018-03-15T05:32:06.613Z,81.40
2018-03-15T05:34:34.915Z,81.40
2018-03-15T05:37:02.957Z,80.00
2018-03-15T05:39:31.776Z,79.90
2018-03-15T05:41:59.858Z,79.80
2018-03-15T05:44:28.686Z,79.40
2018-03-15T05:46:56.738Z,79.40
2018-03-15T05:49:24.801Z,79.40
2018-03-15T05:51:53.033Z,80.00
2018-03-15T05:54:21.200Z,80.10
2018-03-15T05:56:49.919Z,79.20
2018-03-15T05:59:17.970Z,79.50
2018-03-15T06:01:46.812Z,78.30
2018-03-15T06:04:14.869Z,78.20
2018-03-15T06:06:42.929Z,77.60
2018-03-15T06:09:11.802Z,78.20
2018-03-15T06:11:39.852Z,78.10
2018-03-15T06:14:07.913Z,77.70
2018-03-15T06:16:35.994Z,77.80
2018-03-15T06:19:04.805Z,77.30
2018-03-15T06:21:32.867Z,78.00
2018-03-15T06:24:00.928Z,76.60
2018-03-15T06:26:28.983Z,76.40
2018-03-15T06:28:57.040Z,76.80
2018-03-15T06:31:25.113Z,76.80
2018-03-15T06:33:53.164Z,77.20
2018-03-15T06:36:21.219Z,77.70
2018-03-15T06:38:49.301Z,78.40
2018-03-15T06:41:17.380Z,78.50
2018-03-15T06:43:45.501Z,78.30
2018-03-15T06:46:15.404Z,78.80
2018-03-15T06:48:43.537Z,78.70
2018-03-15T06:51:12.373Z,79.60
2018-03-15T06:53:40.445Z,79.50
2018-03-15T06:56:08.489Z,79.70
2018-03-15T06:58:37.324Z,77.00
2018-03-15T07:01:05.382Z,77.00
2018-03-15T07:03:34.259Z,76.30
2018-03-15T07:06:02.303Z,74.80
2018-03-15T07:08:30.350Z,74.00
2018-03-15T07:10:59.192Z,73.30
2018-03-15T07:13:27.251Z,73.30
2018-03-15T07:15:55.951Z,73.30
2018-03-15T07:18:24.001Z,73.00
2018-03-15T07:20:52.047Z,72.80
2018-03-15T07:23:20.120Z,73.00
2018-03-15T07:25:49.317Z,72.40
2018-03-15T07:28:17.405Z,72.30
2018-03-15T07:30:45.449Z,72.90
2018-03-15T07:33:14.289Z,72.90
2018-03-15T07:35:42.341Z,73.60
2018-03-15T07:38:10.399Z,72.80
2018-03-15T07:40:38.474Z,73.70
2018-03-15T07:43:06.524Z,73.70
2018-03-15T07:45:34.580Z,74.00
2018-03-15T07:48:03.409Z,73.10
2018-03-15T07:50:31.468Z,73.00
2018-03-15T07:52:59.531Z,72.80
2018-03-15T07:55:28.349Z,71.90
2018-03-15T07:57:57.168Z,70.50
2018-03-15T08:00:25.241Z,70.50
2018-03-15T08:02:53.367Z,68.50
2018-03-15T08:05:21.412Z,65.30
2018-03-15T08:07:49.463Z,62.10
2018-03-15T08:10:17.517Z,62.90
2018-03-15T08:12:45.589Z,63.10
2018-03-15T08:15:13.640Z,62.40
2018-03-15T08:17:41.705Z,62.30
2018-03-15T08:20:09.764Z,63.40
2018-03-15T08:22:37.830Z,63.50
2018-03-15T08:25:05.897Z,63.00
2018-03-15T08:27:33.960Z,63.00
2018-03-15T08:30:02.013Z,62.00
2018-03-15T08:32:30.074Z,62.50
2018-03-15T08:34:59.278Z,61.00
2018-03-15T08:37:27.357Z,61.50
2018-03-15T08:39:55.399Z,61.20
2018-03-15T08:42:23.470Z,60.40
2018-03-15T08:44:52.292Z,58.40
2018-03-15T08:47:20.327Z,58.30
2018-03-15T08:49:48.398Z,57.70
2018-03-15T08:52:16.474Z,56.30
2018-03-15T08:54:44.528Z,56.60
2018-03-15T08:57:12.597Z,56.70
2018-03-15T08:59:41.604Z,54.50
2018-03-15T09:02:10.419Z,55.40
2018-03-15T09:04:39.796Z,55.40
2018-03-15T09:07:07.332Z,56.90
2018-03-15T09:09:35.394Z,56.50
2018-03-15T09:12:03.473Z,56.80
2018-03-15T09:14:31.544Z,56.30
2018-03-15T09:16:59.652Z,55.50
2018-03-15T09:19:28.446Z,55.10
2018-03-15T09:21:56.482Z,55.00
2018-03-15T09:24:24.569Z,55.30
2018-03-15T09:26:52.623Z,54.80
2018-03-15T09:29:20.690Z,55.30
2018-03-15T09:31:49.044Z,55.00
2018-03-15T09:34:17.353Z,55.30
2018-03-15T09:36:45.559Z,55.10
2018-03-15T09:39:13.651Z,54.50
2018-03-15T09:41:41.731Z,54.10
2018-03-15T09:44:09.792Z,54.40
2018-03-15T09:46:37.852Z,53.40
2018-03-15T09:49:05.945Z,52.70
2018-03-15T09:51:34.009Z,51.10
2018-03-15T09:54:02.835Z,47.50
2018-03-15T09:56:30.911Z,47.50
2018-03-15T09:58:58.976Z,46.40
2018-03-15T10:01:27.816Z,45.20
2018-03-15T10:03:56.396Z,45.20
2018-03-15T10:06:24.440Z,44.90
2018-03-15T10:08:52.502Z,43.70
2018-03-15T10:11:20.909Z,43.80
2018-03-15T10:13:49.023Z,45.30
2018-03-15T10:16:17.853Z,45.60
2018-03-15T10:18:45.907Z,45.50
2018-03-15T10:21:13.962Z,46.10
2018-03-15T10:23:42.031Z,46.90
2018-03-15T10:26:11.071Z,46.00
2018-03-15T10:28:40.264Z,46.00
2018-03-15T10:31:08.332Z,46.00
2018-03-15T10:33:38.318Z,48.70
2018-03-15T10:36:06.409Z,47.60
2018-03-15T10:38:34.505Z,48.20
2018-03-15T10:41:02.591Z,47.40
2018-03-15T10:43:30.644Z,47.50
2018-03-15T10:45:58.710Z,48.40
2018-03-15T10:48:27.535Z,47.80
2018-03-15T10:50:56.256Z,47.80
2018-03-15T10:53:24.523Z,47.00
2018-03-15T10:55:52.599Z,45.80
2018-03-15T10:58:20.642Z,47.10
2018-03-15T11:01:09.788Z,48.50
2018-03-15T11:03:43.455Z,49.60
2018-03-15T11:06:12.288Z,49.10
2018-03-15T11:08:40.338Z,49.00
2018-03-15T11:11:09.187Z,48.50
2018-03-15T11:13:37.245Z,48.50
2018-03-15T11:16:05.323Z,47.20
2018-03-15T11:18:34.352Z,40.70
2018-03-15T11:21:02.445Z,40.60
2018-03-15T11:23:30.512Z,38.60
2018-03-15T11:25:58.591Z,38.30
2018-03-15T11:28:26.650Z,32.30
2018-03-15T11:30:56.864Z,30.00
2018-03-15T11:33:25.416Z,28.40
2018-03-15T11:35:53.541Z,25.80
2018-03-15T11:38:21.587Z,23.30
2018-03-15T11:40:49.630Z,24.00
2018-03-15T11:43:18.456Z,23.20
2018-03-15T11:45:46.559Z,23.20
2018-03-15T11:48:14.612Z,21.90
2018-03-15T11:50:42.715Z,20.60
2018-03-15T11:53:10.732Z,21.00
2018-03-15T11:55:38.788Z,20.10
2018-03-15T11:58:07.621Z,20.90
2018-03-15T12:00:35.692Z,20.90
2018-03-15T12:03:03.732Z,20.40
2018-03-15T12:05:32.000Z,21.00
2018-03-15T12:08:00.820Z,22.00
2018-03-15T12:10:28.872Z,22.00
2018-03-15T12:12:56.938Z,22.20
2018-03-15T12:15:24.998Z,22.90
2018-03-15T12:17:53.074Z,23.90
2018-03-15T12:20:21.138Z,23.90
2018-03-15T12:22:49.179Z,25.90
2018-03-15T12:25:17.259Z,26.80
2018-03-15T12:27:45.311Z,28.00
2018-03-15T12:30:13.383Z,29.00
2018-03-15T12:32:41.440Z,29.90
2018-03-15T12:35:10.250Z,32.20
2018-03-15T12:37:38.338Z,32.20
2018-03-15T12:40:07.139Z,32.20
2018-03-15T12:42:35.282Z,32.20
2018-03-15T12:45:03.303Z,32.50
2018-03-15T12:47:31.378Z,31.30
2018-03-15T12:50:00.195Z,33.60
2018-03-15T12:52:28.273Z,33.60
2018-03-15T12:54:57.053Z,33.80
2018-03-15T12:57:25.939Z,34.80
2018-03-15T12:59:53.991Z,34.70
2018-03-15T13:02:22.050Z,35.80
2018-03-15T13:04:50.100Z,36.00
2018-03-15T13:07:18.936Z,36.70
2018-03-15T13:09:47.012Z,36.70
2018-03-15T13:12:17.018Z,37.60
2018-03-15T13:14:45.072Z,36.60
2018-03-15T13:17:13.147Z,38.70
2018-03-15T13:19:41.200Z,39.90
2018-03-15T13:22:09.282Z,41.50
2018-03-15T13:24:37.331Z,41.20
2018-03-15T13:27:05.401Z,41.40
2018-03-15T13:29:33.530Z,41.00
2018-03-15T13:32:01.605Z,42.30
2018-03-15T13:34:29.663Z,42.70
2018-03-15T13:36:57.718Z,43.10
2018-03-15T13:39:25.766Z,45.50
2018-03-15T13:41:53.863Z,44.60
2018-03-15T13:44:21.931Z,44.90
2018-03-15T13:46:50.011Z,45.80
2018-03-15T13:49:18.085Z,46.90
2018-03-15T13:51:46.909Z,48.30
2018-03-15T13:54:14.975Z,48.30
2018-03-15T13:56:43.040Z,49.30
2018-03-15T13:59:11.884Z,51.40
2018-03-15T14:01:39.962Z,51.30
2018-03-15T14:04:08.016Z,51.60
2018-03-15T14:06:36.266Z,51.80
2018-03-15T14:09:04.346Z,52.20
2018-03-15T14:11:32.447Z,53.00
2018-03-15T14:14:00.506Z,53.10
2018-03-15T14:16:28.579Z,53.80
2018-03-15T14:18:56.628Z,54.10
2018-03-15T14:21:24.688Z,54.10
2018-03-15T14:23:53.543Z,55.30
2018-03-15T14:26:21.588Z,55.20
2018-03-15T14:28:50.411Z,54.50
2018-03-15T14:31:18.462Z,54.40
2018-03-15T14:33:47.334Z,55.50
2018-03-15T14:36:16.294Z,55.50
2018-03-15T14:38:44.386Z,54.10
2018-03-15T14:41:13.171Z,52.60
2018-03-15T14:43:41.223Z,52.50
2018-03-15T14:46:09.361Z,55.70
2018-03-15T14:48:37.452Z,56.80
2018-03-15T14:51:05.514Z,57.50
2018-03-15T14:53:33.588Z,58.60
2018-03-15T14:56:01.649Z,57.60
2018-03-15T14:58:30.536Z,55.10
2018-03-15T15:00:58.606Z,54.50
2018-03-15T15:03:26.945Z,55.20
2018-03-15T15:05:54.984Z,56.50
2018-03-15T15:08:23.056Z,56.80
2018-03-15T15:10:51.127Z,56.20
2018-03-15T15:13:19.975Z,56.40
2018-03-15T15:15:48.813Z,55.80
2018-03-15T15:18:16.886Z,55.80
2018-03-15T15:20:44.941Z,56.30
2018-03-15T15:23:13.794Z,57.20
2018-03-15T15:25:41.855Z,57.60
2018-03-15T15:28:09.947Z,57.80
2018-03-15T15:30:38.004Z,57.50
2018-03-15T15:33:06.826Z,58.00
2018-03-15T15:35:34.887Z,58.00
2018-03-15T15:38:03.772Z,57.80
2018-03-15T15:40:32.135Z,57.80
2018-03-15T15:43:00.227Z,58.40
2018-03-15T15:45:28.280Z,58.20
2018-03-15T15:47:57.129Z,58.10
2018-03-15T15:50:25.202Z,58.10
2018-03-15T15:52:53.281Z,58.20
2018-03-15T15:55:21.359Z,58.10
2018-03-15T15:57:49.429Z,57.80
2018-03-15T16:00:17.517Z,58.00
2018-03-15T16:02:45.582Z,57.60
2018-03-15T16:05:13.649Z,57.70
2018-03-15T16:07:41.703Z,58.00
2018-03-15T16:10:09.758Z,58.60
2018-03-15T16:12:37.834Z,59.10
2018-03-15T16:15:05.900Z,58.80
2018-03-15T16:17:34.799Z,58.90
2018-03-15T16:20:02.868Z,58.70
2018-03-15T16:22:31.856Z,58.90
2018-03-15T16:25:08.340Z,59.00
2018-03-15T16:27:36.393Z,58.90
2018-03-15T16:30:05.233Z,58.70
2018-03-15T16:32:34.087Z,58.90
2018-03-15T16:35:02.148Z,58.80
2018-03-15T16:37:30.348Z,59.00
2018-03-15T16:39:58.409Z,59.00
2018-03-15T16:42:26.475Z,59.10
2018-03-15T16:44:54.537Z,59.00
2018-03-15T16:47:23.447Z,58.90
2018-03-15T16:49:53.220Z,59.10
2018-03-15T16:52:21.290Z,59.00
2018-03-15T16:54:49.347Z,59.20
2018-03-15T16:57:17.395Z,58.90
2018-03-15T16:59:45.468Z,59.40
2018-03-15T17:02:13.526Z,59.30
2018-03-15T17:04:41.793Z,59.50
2018-03-15T17:07:09.849Z,59.70
2018-03-15T17:09:39.392Z,59.70
2018-03-15T17:12:07.435Z,59.70
2018-03-15T17:14:35.504Z,59.70
2018-03-15T17:17:04.211Z,60.00
2018-03-15T17:19:32.461Z,60.00
2018-03-15T17:22:04.400Z,59.90
2018-03-15T17:24:33.244Z,59.90
2018-03-15T17:27:01.308Z,59.80
2018-03-15T17:29:29.385Z,60.00
2018-03-15T17:31:57.599Z,60.70
2018-03-15T17:34:25.666Z,61.40
2018-03-15T17:36:53.739Z,62.20
2018-03-15T17:39:21.825Z,63.00
2018-03-15T17:41:49.977Z,63.80
2018-03-15T17:44:18.052Z,64.10
2018-03-15T17:46:46.125Z,63.90
2018-03-15T17:49:14.411Z,64.30
2018-03-15T17:51:42.676Z,64.50
2018-03-15T17:54:11.540Z,64.90
2018-03-15T17:56:40.643Z,65.10
2018-03-15T17:59:09.942Z,65.20
2018-03-15T18:01:38.945Z,65.00
2018-03-15T18:04:06.999Z,64.90
2018-03-15T18:06:35.055Z,65.40
2018-03-15T18:09:03.211Z,65.60
2018-03-15T18:11:32.031Z,65.20
2018-03-15T18:14:00.139Z,65.20
2018-03-15T18:16:28.230Z,65.30
2018-03-15T18:18:56.332Z,65.50
2018-03-15T18:21:24.623Z,65.80
2018-03-15T18:23:52.657Z,65.90
2018-03-15T18:26:20.820Z,66.30
2018-03-15T18:28:48.889Z,66.60
2018-03-15T18:31:16.977Z,66.70
2018-03-15T18:33:45.092Z,66.80
2018-03-15T18:36:13.154Z,67.10
2018-03-15T18:38:41.206Z,67.50
2018-03-15T18:41:09.280Z,67.80
2018-03-15T18:43:37.354Z,68.20
2018-03-15T18:46:05.410Z,67.90
2018-03-15T18:48:33.463Z,67.80
2018-03-15T18:51:02.305Z,68.30
2018-03-15T18:53:30.369Z,67.80
2018-03-15T18:55:59.402Z,68.80
2018-03-15T18:58:27.468Z,68.80
2018-03-15T19:00:55.549Z,69.10
2018-03-15T19:03:23.617Z,69.10
2018-03-15T19:05:52.452Z,69.40
2018-03-15T19:08:21.444Z,69.40
2018-03-15T19:10:50.260Z,70.90
2018-03-15T19:13:18.340Z,70.90
2018-03-15T19:15:46.411Z,71.40
2018-03-15T19:18:14.455Z,71.60
2018-03-15T19:20:42.521Z,71.80
2018-03-15T19:23:10.578Z,71.90
2018-03-15T19:25:38.723Z,71.90
2018-03-15T19:28:07.685Z,72.00
2018-03-15T19:30:35.786Z,71.90
2018-03-15T19:33:03.852Z,72.20
2018-03-15T19:35:31.924Z,72.40
2018-03-15T19:38:00.013Z,72.10
2018-03-15T19:40:28.083Z,71.90
2018-03-15T19:42:56.147Z,72.10
2018-03-15T19:45:24.204Z,71.90
2018-03-15T19:47:52.247Z,72.00
2018-03-15T19:50:20.330Z,72.30
2018-03-15T19:52:48.409Z,73.20
2018-03-15T19:55:16.480Z,73.50
2018-03-15T19:57:44.559Z,73.70
2018-03-15T20:00:12.607Z,74.10
2018-03-15T20:02:40.664Z,74.40
2018-03-15T20:05:08.737Z,75.40
2018-03-15T20:07:36.782Z,74.50
2018-03-15T20:10:04.883Z,74.40
2018-03-15T20:12:32.931Z,74.40
2018-03-15T20:15:01.749Z,74.40
2018-03-15T20:17:29.814Z,74.40
2018-03-15T20:19:58.633Z,75.00
2018-03-15T20:22:32.485Z,75.00
2018-03-15T20:25:00.538Z,75.60
2018-03-15T20:27:34.277Z,76.20
2018-03-15T20:30:02.335Z,76.50
2018-03-15T20:32:35.954Z,76.10
2018-03-15T20:35:04.017Z,76.30
2018-03-15T20:37:32.832Z,76.40
2018-03-15T20:40:06.586Z,76.30
2018-03-15T20:42:34.671Z,76.50
2018-03-15T20:45:02.748Z,76.70
2018-03-15T20:47:36.658Z,76.50
2018-03-15T20:50:04.704Z,77.30
2018-03-15T20:52:33.552Z,77.20
2018-03-15T20:55:01.609Z,77.20
2018-03-15T20:57:29.680Z,76.90
2018-03-15T20:59:58.497Z,77.60
2018-03-15T21:02:26.542Z,77.60
2018-03-15T21:04:54.599Z,78.00
2018-03-15T21:07:22.658Z,78.20
2018-03-15T21:09:50.720Z,78.50
2018-03-15T21:12:18.821Z,78.80
2018-03-15T21:14:47.609Z,79.70
2018-03-15T21:17:15.663Z,79.60
2018-03-15T21:19:43.725Z,79.80
2018-03-15T21:22:11.805Z,80.50
2018-03-15T21:24:39.860Z,81.40
2018-03-15T21:27:07.969Z,81.00
2018-03-15T21:29:35.985Z,81.30
2018-03-15T21:32:04.816Z,82.40
2018-03-15T21:34:32.863Z,82.40
2018-03-15T21:37:00.921Z,82.20
2018-03-15T21:39:28.979Z,82.60
2018-03-15T21:41:58.558Z,83.10
2018-03-15T21:44:26.636Z,83.10
2018-03-15T21:46:54.718Z,83.20
2018-03-15T21:49:23.754Z,83.40
2018-03-15T21:51:51.913Z,83.40
2018-03-15T21:54:19.937Z,84.70
2018-03-15T21:56:48.001Z,84.00
2018-03-15T21:59:16.975Z,83.90
2018-03-15T22:01:45.026Z,83.90
2018-03-15T22:04:14.991Z,83.30
2018-03-15T22:06:43.652Z,84.00
2018-03-15T22:09:11.724Z,84.20
2018-03-15T22:11:39.784Z,84.40
2018-03-15T22:14:07.834Z,84.40
2018-03-15T22:16:35.888Z,84.50
2018-03-15T22:19:03.972Z,84.00
2018-03-15T22:21:32.937Z,84.40
2018-03-15T22:24:00.963Z,84.30
2018-03-15T22:26:29.082Z,84.40
2018-03-15T22:28:58.283Z,83.90
2018-03-15T22:31:26.332Z,83.90
2018-03-15T22:33:54.396Z,83.90
2018-03-15T22:36:22.461Z,83.70
2018-03-15T22:38:50.486Z,83.40
2018-03-15T22:41:19.202Z,83.90
2018-03-15T22:43:47.246Z,84.10
2018-03-15T22:46:15.293Z,84.40
2018-03-15T22:48:43.470Z,84.30
2018-03-15T22:51:11.526Z,84.40
2018-03-15T22:53:39.575Z,84.60
2018-03-15T22:56:07.612Z,84.00
2018-03-15T22:58:35.655Z,84.00
2018-03-15T23:01:03.757Z,83.70
2018-03-15T23:03:31.811Z,83.60
2018-03-15T23:05:59.894Z,83.20
2018-03-15T23:08:27.951Z,82.80
2018-03-15T23:10:56.767Z,83.30
2018-03-15T23:13:25.588Z,83.60
2018-03-15T23:15:53.638Z,83.40
2018-03-15T23:18:22.466Z,83.90
2018-03-15T23:20:50.502Z,83.90
2018-03-15T23:23:18.572Z,83.80
2018-03-15T23:25:46.643Z,84.70
2018-03-15T23:28:14.713Z,84.90
2018-03-15T23:30:43.696Z,84.90
2018-03-15T23:33:11.823Z,84.70
2018-03-15T23:35:39.859Z,84.80
2018-03-15T23:38:07.931Z,84.50
2018-03-15T23:40:36.767Z,84.00
2018-03-15T23:43:04.787Z,83.90
2018-03-15T23:45:32.887Z,84.00
2018-03-15T23:48:00.951Z,84.30
2018-03-15T23:50:29.010Z,84.70
2018-03-15T23:52:57.093Z,84.50
2018-03-15T23:55:25.143Z,84.50
2018-03-15T23:57:53.230Z,84.10
